sensor_id;sensor_type;location;lat;lon;timestamp;pressure;altitude;pressure_sealevel;temperature;humidity
43257;BME280;28860;43.212;27.934;2022-07-29T00:02:58;101106.09;;;29.92;45.60
43257;BME280;28860;43.212;27.934;2022-07-29T00:05:27;101083.91;;;29.38;46.31
43257;BME280;28860;43.212;27.934;2022-07-29T00:07:55;101094.38;;;29.63;45.80
43257;BME280;28860;43.212;27.934;2022-07-29T00:10:21;101105.88;;;29.66;45.63
43257;BME280;28860;43.212;27.934;2022-07-29T00:12:53;101106.94;;;29.72;45.92
43257;BME280;28860;43.212;27.934;2022-07-29T00:15:21;101099.50;;;29.66;46.01
43257;BME280;28860;43.212;27.934;2022-07-29T00:17:49;101082.47;;;29.56;45.69
43257;BME280;28860;43.212;27.934;2022-07-29T00:20:22;101097.38;;;29.68;45.53
43257;BME280;28860;43.212;27.934;2022-07-29T00:22:48;101091.84;;;29.68;45.26
43257;BME280;28860;43.212;27.934;2022-07-29T00:25:17;101091.84;;;29.68;45.40
43257;BME280;28860;43.212;27.934;2022-07-29T00:27:43;101097.81;;;29.65;45.39
43257;BME280;28860;43.212;27.934;2022-07-29T00:30:12;101091.22;;;29.59;45.09
43257;BME280;28860;43.212;27.934;2022-07-29T00:32:42;101085.88;;;29.58;45.16
43257;BME280;28860;43.212;27.934;2022-07-29T00:35:08;101103.34;;;29.65;45.07
43257;BME280;28860;43.212;27.934;2022-07-29T00:37:54;101087.59;;;29.59;45.06
43257;BME280;28860;43.212;27.934;2022-07-29T00:40:29;101076.53;;;29.59;44.88
43257;BME280;28860;43.212;27.934;2022-07-29T00:42:57;101104.59;;;29.69;44.96
43257;BME280;28860;43.212;27.934;2022-07-29T00:45:23;101102.47;;;29.64;45.15
43257;BME280;28860;43.212;27.934;2022-07-29T00:47:55;101108.22;;;29.76;44.74
43257;BME280;28860;43.212;27.934;2022-07-29T00:50:21;101103.13;;;29.73;44.68
43257;BME280;28860;43.212;27.934;2022-07-29T00:52:50;101088.47;;;29.66;44.69
43257;BME280;28860;43.212;27.934;2022-07-29T00:55:18;101072.25;;;29.56;44.58
43257;BME280;28860;43.212;27.934;2022-07-29T00:57:46;101086.50;;;29.60;44.49
43257;BME280;28860;43.212;27.934;2022-07-29T01:00:16;101082.06;;;29.59;44.22
43257;BME280;28860;43.212;27.934;2022-07-29T01:02:44;101089.28;;;29.60;44.49
43257;BME280;28860;43.212;27.934;2022-07-29T01:05:12;101082.28;;;29.57;44.27
43257;BME280;28860;43.212;27.934;2022-07-29T01:07:39;101083.34;;;29.49;44.48
43257;BME280;28860;43.212;27.934;2022-07-29T01:10:09;101080.34;;;29.51;44.53
43257;BME280;28860;43.212;27.934;2022-07-29T01:12:36;101090.13;;;29.54;44.48
43257;BME280;28860;43.212;27.934;2022-07-29T01:15:06;101087.16;;;29.55;44.18
43257;BME280;28860;43.212;27.934;2022-07-29T01:18:01;101096.13;;;29.64;44.30
43257;BME280;28860;43.212;27.934;2022-07-29T01:26:28;101074.16;;;29.42;43.79
43257;BME280;28860;43.212;27.934;2022-07-29T01:31:39;101052.91;;;29.36;43.88
43257;BME280;28860;43.212;27.934;2022-07-29T01:34:12;101082.03;;;29.45;43.94
43257;BME280;28860;43.212;27.934;2022-07-29T01:36:59;101083.34;;;29.49;43.99
43257;BME280;28860;43.212;27.934;2022-07-29T01:39:31;101086.44;;;29.40;44.37
43257;BME280;28860;43.212;27.934;2022-07-29T01:42:43;101062.00;;;29.30;44.18
43257;BME280;28860;43.212;27.934;2022-07-29T01:45:19;101062.81;;;29.10;44.56
43257;BME280;28860;43.212;27.934;2022-07-29T01:48:06;101063.25;;;29.14;44.26
43257;BME280;28860;43.212;27.934;2022-07-29T01:51:00;101060.22;;;29.02;44.86
43257;BME280;28860;43.212;27.934;2022-07-29T01:53:43;101088.75;;;29.22;44.86
43257;BME280;28860;43.212;27.934;2022-07-29T01:56:12;101070.06;;;29.18;44.60
43257;BME280;28860;43.212;27.934;2022-07-29T01:58:43;101056.00;;;29.06;44.67
43257;BME280;28860;43.212;27.934;2022-07-29T02:01:12;101069.00;;;29.19;44.91
43257;BME280;28860;43.212;27.934;2022-07-29T11:23:31;101093.94;;;35.19;35.68
43257;BME280;28860;43.212;27.934;2022-07-29T11:26:19;101098.03;;;35.28;35.94
43257;BME280;28860;43.212;27.934;2022-07-29T11:29:18;101084.19;;;35.33;35.74
43257;BME280;28860;43.212;27.934;2022-07-29T11:31:51;101093.69;;;35.49;35.73
43257;BME280;28860;43.212;27.934;2022-07-29T11:39:46;101073.28;;;35.78;35.01
43257;BME280;28860;43.212;27.934;2022-07-29T11:45:13;101089.34;;;36.05;34.56
43257;BME280;28860;43.212;27.934;2022-07-29T11:50:30;101066.31;;;35.97;34.55
43257;BME280;28860;43.212;27.934;2022-07-29T11:53:02;101045.72;;;35.98;34.34
43257;BME280;28860;43.212;27.934;2022-07-29T11:55:57;101074.09;;;36.30;33.80
43257;BME280;28860;43.212;27.934;2022-07-29T11:58:27;101057.53;;;36.23;33.68
43257;BME280;28860;43.212;27.934;2022-07-29T12:01:28;101071.88;;;36.32;34.30
43257;BME280;28860;43.212;27.934;2022-07-29T12:04:04;101044.00;;;36.15;33.90
43257;BME280;28860;43.212;27.934;2022-07-29T12:06:41;101061.88;;;36.36;33.46
43257;BME280;28860;43.212;27.934;2022-07-29T12:09:11;101057.41;;;36.35;33.70
43257;BME280;28860;43.212;27.934;2022-07-29T12:11:37;101064.25;;;36.44;33.85
43257;BME280;28860;43.212;27.934;2022-07-29T12:17:33;101045.28;;;36.46;33.60
43257;BME280;28860;43.212;27.934;2022-07-29T12:20:02;101027.28;;;36.37;33.94
43257;BME280;28860;43.212;27.934;2022-07-29T12:22:41;101021.13;;;36.35;33.77
43257;BME280;28860;43.212;27.934;2022-07-29T12:25:15;101030.47;;;36.46;33.86
43257;BME280;28860;43.212;27.934;2022-07-29T12:27:43;101028.78;;;36.45;34.08
43257;BME280;28860;43.212;27.934;2022-07-29T12:30:13;101014.47;;;36.41;34.03
43257;BME280;28860;43.212;27.934;2022-07-29T12:33:09;101020.72;;;36.48;33.92
43257;BME280;28860;43.212;27.934;2022-07-29T12:35:38;101012.94;;;36.50;33.96
43257;BME280;28860;43.212;27.934;2022-07-29T12:38:36;101025.78;;;36.51;33.87
43257;BME280;28860;43.212;27.934;2022-07-29T12:41:02;101039.84;;;36.57;33.81
43257;BME280;28860;43.212;27.934;2022-07-29T12:43:30;101002.16;;;36.37;34.16
43257;BME280;28860;43.212;27.934;2022-07-29T12:46:10;101007.16;;;36.35;34.32
43257;BME280;28860;43.212;27.934;2022-07-29T12:49:06;101028.84;;;36.50;34.59
43257;BME280;28860;43.212;27.934;2022-07-29T12:51:35;100998.16;;;36.28;34.73
43257;BME280;28860;43.212;27.934;2022-07-29T12:54:15;101018.38;;;36.40;34.81
43257;BME280;28860;43.212;27.934;2022-07-29T12:56:44;100996.50;;;36.32;35.17
43257;BME280;28860;43.212;27.934;2022-07-29T12:59:23;101018.06;;;36.36;35.45
43257;BME280;28860;43.212;27.934;2022-07-29T13:01:51;101012.75;;;36.35;35.16
43257;BME280;28860;43.212;27.934;2022-07-29T13:04:54;101014.66;;;36.34;34.90
43257;BME280;28860;43.212;27.934;2022-07-29T13:07:29;101017.22;;;36.36;35.15
43257;BME280;28860;43.212;27.934;2022-07-29T13:10:24;101021.78;;;36.42;35.41
43257;BME280;28860;43.212;27.934;2022-07-29T13:13:16;101013.66;;;36.40;35.76
43257;BME280;28860;43.212;27.934;2022-07-29T13:16:11;101025.16;;;36.44;35.97
43257;BME280;28860;43.212;27.934;2022-07-29T13:18:39;101013.84;;;36.34;36.25
43257;BME280;28860;43.212;27.934;2022-07-29T13:21:33;101021.78;;;36.42;36.78
43257;BME280;28860;43.212;27.934;2022-07-29T13:37:33;101003.78;;;35.93;37.60
43257;BME280;28860;43.212;27.934;2022-07-29T13:40:01;100988.28;;;36.03;37.20
43257;BME280;28860;43.212;27.934;2022-07-29T13:42:54;101007.47;;;36.16;37.16
43257;BME280;28860;43.212;27.934;2022-07-29T13:45:26;101009.69;;;36.14;36.73
43257;BME280;28860;43.212;27.934;2022-07-29T13:48:07;101004.94;;;36.15;37.07
43257;BME280;28860;43.212;27.934;2022-07-29T13:50:35;101013.59;;;36.13;36.95
43257;BME280;28860;43.212;27.934;2022-07-29T13:53:01;100999.34;;;35.97;36.93
43257;BME280;28860;43.212;27.934;2022-07-29T14:02:02;101016.97;;;35.81;37.99
43257;BME280;28860;43.212;27.934;2022-07-29T14:04:29;101006.00;;;35.74;38.02
43257;BME280;28860;43.212;27.934;2022-07-29T14:07:17;101012.44;;;35.75;38.34
43257;BME280;28860;43.212;27.934;2022-07-29T14:09:44;101010.16;;;35.72;37.81
43257;BME280;28860;43.212;27.934;2022-07-29T14:12:14;100983.13;;;35.55;37.67
43257;BME280;28860;43.212;27.934;2022-07-29T14:15:17;101024.78;;;35.62;36.69
43257;BME280;28860;43.212;27.934;2022-07-29T14:17:43;101024.56;;;35.51;36.77
43257;BME280;28860;43.212;27.934;2022-07-29T14:20:09;101003.94;;;35.35;36.96
43257;BME280;28860;43.212;27.934;2022-07-29T14:26:02;101007.75;;;35.29;37.84
43257;BME280;28860;43.212;27.934;2022-07-29T14:28:28;101003.53;;;35.26;37.44
43257;BME280;28860;43.212;27.934;2022-07-29T14:30:55;101015.09;;;35.35;37.61
43257;BME280;28860;43.212;27.934;2022-07-29T14:33:37;101018.31;;;35.44;37.46
43257;BME280;28860;43.212;27.934;2022-07-29T14:36:06;101001.06;;;35.30;37.11
43257;BME280;28860;43.212;27.934;2022-07-29T14:38:34;101022.53;;;35.47;36.88
43257;BME280;28860;43.212;27.934;2022-07-29T14:41:00;101014.09;;;35.41;36.54
43257;BME280;28860;43.212;27.934;2022-07-29T14:43:28;100989.22;;;35.23;36.50
43257;BME280;28860;43.212;27.934;2022-07-29T14:46:28;101011.22;;;35.36;36.37
43257;BME280;28860;43.212;27.934;2022-07-29T14:48:56;101011.22;;;35.36;36.76
43257;BME280;28860;43.212;27.934;2022-07-29T14:51:22;100993.56;;;35.13;36.81
43257;BME280;28860;43.212;27.934;2022-07-29T14:54:04;100996.41;;;35.19;36.77
43257;BME280;28860;43.212;27.934;2022-07-29T14:56:31;101006.97;;;35.17;36.56
43257;BME280;28860;43.212;27.934;2022-07-29T14:58:59;101001.41;;;35.17;36.68
43257;BME280;28860;43.212;27.934;2022-07-29T15:01:37;100984.50;;;35.06;36.44
43257;BME280;28860;43.212;27.934;2022-07-29T15:04:09;100964.16;;;34.94;36.75
43257;BME280;28860;43.212;27.934;2022-07-29T15:07:09;100995.16;;;35.09;36.98
43257;BME280;28860;43.212;27.934;2022-07-29T15:09:37;100983.78;;;34.99;37.23
43257;BME280;28860;43.212;27.934;2022-07-29T15:12:06;100975.31;;;34.94;37.40
43257;BME280;28860;43.212;27.934;2022-07-29T15:14:46;100966.19;;;34.81;37.88
43257;BME280;28860;43.212;27.934;2022-07-29T15:17:13;100987.31;;;34.94;37.67
43257;BME280;28860;43.212;27.934;2022-07-29T15:23:10;100963.81;;;34.73;38.16
43257;BME280;28860;43.212;27.934;2022-07-29T15:25:39;100975.16;;;34.83;38.40
43257;BME280;28860;43.212;27.934;2022-07-29T15:28:06;100973.78;;;34.86;38.15
43257;BME280;28860;43.212;27.934;2022-07-29T15:30:54;100957.88;;;34.69;38.10
43257;BME280;28860;43.212;27.934;2022-07-29T15:33:20;100955.38;;;34.68;38.44
43257;BME280;28860;43.212;27.934;2022-07-29T15:36:12;100979.63;;;34.84;38.74
43257;BME280;28860;43.212;27.934;2022-07-29T17:28:05;101010.91;;;33.20;43.25
43257;BME280;28860;43.212;27.934;2022-07-29T17:30:31;101013.69;;;33.20;43.28
43257;BME280;28860;43.212;27.934;2022-07-29T17:32:58;101024.78;;;33.20;43.38
43257;BME280;28860;43.212;27.934;2022-07-29T17:35:24;100987.50;;;32.97;43.49
43257;BME280;28860;43.212;27.934;2022-07-29T17:38:07;101018.25;;;33.14;43.90
43257;BME280;28860;43.212;27.934;2022-07-29T17:40:33;101010.00;;;33.07;44.04
43257;BME280;28860;43.212;27.934;2022-07-29T17:43:04;101029.59;;;33.12;43.87
43257;BME280;28860;43.212;27.934;2022-07-29T17:45:33;101014.34;;;33.03;44.09
43257;BME280;28860;43.212;27.934;2022-07-29T17:47:59;100995.72;;;32.92;44.13
43257;BME280;28860;43.212;27.934;2022-07-29T17:50:25;101018.19;;;33.02;44.33
43257;BME280;28860;43.212;27.934;2022-07-29T17:52:52;101003.84;;;32.86;44.32
43257;BME280;28860;43.212;27.934;2022-07-29T17:55:19;101003.84;;;32.86;44.44
43257;BME280;28860;43.212;27.934;2022-07-29T17:57:45;100992.00;;;32.79;44.24
43257;BME280;28860;43.212;27.934;2022-07-29T18:00:14;100982.38;;;32.82;44.41
43257;BME280;28860;43.212;27.934;2022-07-29T18:02:41;101011.91;;;32.95;44.33
43257;BME280;28860;43.212;27.934;2022-07-29T18:05:09;101030.63;;;32.99;44.87
43257;BME280;28860;43.212;27.934;2022-07-29T18:07:36;101011.09;;;32.87;45.13
43257;BME280;28860;43.212;27.934;2022-07-29T18:10:07;101016.25;;;32.91;45.17
43257;BME280;28860;43.212;27.934;2022-07-29T18:12:33;101007.34;;;32.82;45.38
43257;BME280;28860;43.212;27.934;2022-07-29T18:14:59;101022.41;;;32.93;45.22
43257;BME280;28860;43.212;27.934;2022-07-29T18:17:25;101011.66;;;32.78;45.55
43257;BME280;28860;43.212;27.934;2022-07-29T18:19:54;101007.44;;;32.75;45.61
43257;BME280;28860;43.212;27.934;2022-07-29T18:22:19;101002.34;;;32.72;45.47
43257;BME280;28860;43.212;27.934;2022-07-29T18:24:46;101001.00;;;32.63;46.01
43257;BME280;28860;43.212;27.934;2022-07-29T18:27:20;101009.06;;;32.64;46.14
43257;BME280;28860;43.212;27.934;2022-07-29T18:29:45;101015.34;;;32.59;46.18
43257;BME280;28860;43.212;27.934;2022-07-29T18:32:11;101023.19;;;32.63;46.51
43257;BME280;28860;43.212;27.934;2022-07-29T18:34:37;101023.81;;;32.65;46.53
43257;BME280;28860;43.212;27.934;2022-07-29T18:37:06;101021.94;;;32.58;46.76
43257;BME280;28860;43.212;27.934;2022-07-29T18:39:32;101050.00;;;32.69;46.84
43257;BME280;28860;43.212;27.934;2022-07-29T18:42:00;101019.63;;;32.55;46.73
43257;BME280;28860;43.212;27.934;2022-07-29T18:44:32;101040.47;;;32.65;46.82
43257;BME280;28860;43.212;27.934;2022-07-29T18:47:01;101050.47;;;32.66;46.99
43257;BME280;28860;43.212;27.934;2022-07-29T18:49:28;101048.66;;;32.59;47.21
43257;BME280;28860;43.212;27.934;2022-07-29T18:51:54;101055.41;;;32.64;46.91
43257;BME280;28860;43.212;27.934;2022-07-29T18:54:24;101044.78;;;32.60;46.80
43257;BME280;28860;43.212;27.934;2022-07-29T18:56:50;101053.13;;;32.60;47.15
43257;BME280;28860;43.212;27.934;2022-07-29T18:59:17;101060.97;;;32.64;47.13
43257;BME280;28860;43.212;27.934;2022-07-29T19:01:48;101038.13;;;32.43;46.96
43257;BME280;28860;43.212;27.934;2022-07-29T19:04:25;101067.00;;;32.60;47.43
43257;BME280;28860;43.212;27.934;2022-07-29T19:06:51;101069.53;;;32.62;47.04
43257;BME280;28860;43.212;27.934;2022-07-29T19:09:17;101062.34;;;32.54;47.59
43257;BME280;28860;43.212;27.934;2022-07-29T19:11:43;101042.47;;;32.39;47.38
43257;BME280;28860;43.212;27.934;2022-07-29T19:14:09;101055.56;;;32.50;47.25
43257;BME280;28860;43.212;27.934;2022-07-29T19:16:40;101061.13;;;32.50;47.69
43257;BME280;28860;43.212;27.934;2022-07-29T19:19:13;101059.44;;;32.49;47.50
43257;BME280;28860;43.212;27.934;2022-07-29T19:21:43;101033.53;;;32.37;47.51
43257;BME280;28860;43.212;27.934;2022-07-29T19:24:10;101033.09;;;32.33;47.72
43257;BME280;28860;43.212;27.934;2022-07-29T19:26:37;101054.78;;;32.43;48.08
